createdAt,value
2022-10-22T00:02:24.727Z,75.08
2022-10-22T00:04:51.552Z,74.62
2022-10-22T00:07:18.849Z,73.89
2022-10-22T00:09:46.378Z,73.64
2022-10-22T00:12:15.155Z,74.20
2022-10-22T00:14:43.020Z,74.53
2022-10-22T00:17:11.572Z,75.12
2022-10-22T00:19:39.121Z,75.07
2022-10-22T00:22:06.646Z,75.42
2022-10-22T00:24:34.794Z,75.62
2022-10-22T00:27:02.201Z,75.58
2022-10-22T00:29:28.912Z,75.49
2022-10-22T00:34:27.587Z,76.16
2022-10-22T00:36:54.752Z,76.17
2022-10-22T00:39:25.092Z,76.05
2022-10-22T00:41:56.588Z,75.76
2022-10-22T00:45:20.955Z,75.65
2022-10-22T00:48:01.732Z,75.68
2022-10-22T00:50:37.695Z,74.99
2022-10-22T00:53:10.660Z,74.36
2022-10-22T00:55:39.027Z,74.63
2022-10-22T00:58:05.848Z,74.79
2022-10-22T01:00:32.790Z,74.09
2022-10-22T01:02:59.938Z,74.63
2022-10-22T01:05:39.218Z,74.59
2022-10-22T01:08:16.159Z,74.66
2022-10-22T01:11:06.893Z,74.67
2022-10-22T01:14:00.222Z,74.67
2022-10-22T01:17:10.386Z,74.46
2022-10-22T01:20:17.732Z,74.50
2022-10-22T01:23:33.512Z,74.39
2022-10-22T01:26:42.277Z,74.72
2022-10-22T01:29:36.226Z,73.97
2022-10-22T01:32:12.673Z,74.11
2022-10-22T01:34:46.851Z,74.32
2022-10-22T01:37:17.081Z,74.33
2022-10-22T01:39:47.417Z,74.38
2022-10-22T01:42:14.771Z,74.62
2022-10-22T01:44:42.572Z,74.74
2022-10-22T01:47:43.153Z,74.34
2022-10-22T01:50:30.819Z,74.45
2022-10-22T01:53:17.794Z,74.15
2022-10-22T01:56:04.098Z,73.79
2022-10-22T01:58:57.868Z,74.23
2022-10-22T02:01:47.138Z,74.58
2022-10-22T02:04:49.979Z,73.93
2022-10-22T02:07:24.311Z,74.17
2022-10-22T02:09:54.870Z,74.32
2022-10-22T02:12:25.466Z,74.53
2022-10-22T02:14:54.877Z,74.36
2022-10-22T02:17:24.074Z,74.02
2022-10-22T02:20:01.484Z,74.12
2022-10-22T02:22:28.878Z,74.13
2022-10-22T02:24:56.062Z,74.23
2022-10-22T02:27:40.162Z,73.94
2022-10-22T02:30:11.869Z,73.91
2022-10-22T02:33:02.768Z,73.54
2022-10-22T02:35:31.092Z,73.52
2022-10-22T02:37:59.886Z,73.30
2022-10-22T02:40:28.461Z,73.19
2022-10-22T02:42:54.903Z,73.18
2022-10-22T02:45:22.229Z,73.70
2022-10-22T02:47:49.392Z,73.91
2022-10-22T02:50:16.006Z,74.03
2022-10-22T02:52:43.001Z,74.24
2022-10-22T02:55:09.807Z,74.31
2022-10-22T02:57:36.703Z,74.53
2022-10-22T03:00:06.478Z,74.28
2022-10-22T03:02:33.090Z,74.25
2022-10-22T03:04:59.606Z,73.78
2022-10-22T03:07:26.391Z,74.00
2022-10-22T03:09:52.859Z,74.66
2022-10-22T03:12:19.315Z,74.81
2022-10-22T03:14:45.855Z,74.41
2022-10-22T03:17:12.471Z,74.20
2022-10-22T03:19:38.926Z,73.77
2022-10-22T03:22:13.431Z,73.94
2022-10-22T03:24:47.636Z,74.75
2022-10-22T03:27:18.321Z,74.79
2022-10-22T03:29:46.827Z,74.24
2022-10-22T03:32:13.972Z,74.93
2022-10-22T03:34:40.401Z,74.62
2022-10-22T03:37:06.993Z,74.86
2022-10-22T03:39:35.824Z,74.83
2022-10-22T03:42:04.850Z,74.50
2022-10-22T03:44:32.962Z,74.41
2022-10-22T03:47:02.444Z,74.42
2022-10-22T03:49:29.405Z,74.41
2022-10-22T03:51:55.879Z,74.74
2022-10-22T03:54:22.355Z,74.56
2022-10-22T03:56:48.807Z,74.73
2022-10-22T03:59:15.423Z,74.48
2022-10-22T04:01:42.023Z,74.18
2022-10-22T04:04:08.542Z,74.27
2022-10-22T04:06:35.002Z,74.29
2022-10-22T04:09:02.256Z,74.67
2022-10-22T04:11:28.812Z,75.15
2022-10-22T04:13:55.262Z,74.86
2022-10-22T04:16:25.168Z,74.63
2022-10-22T04:18:54.071Z,74.95
2022-10-22T04:21:20.587Z,75.10
2022-10-22T04:23:50.564Z,74.85
2022-10-22T04:26:19.368Z,75.29
2022-10-22T04:28:48.013Z,75.47
2022-10-22T04:31:18.709Z,74.93
2022-10-22T04:33:45.867Z,74.61
2022-10-22T04:36:18.345Z,73.93
2022-10-22T04:38:47.125Z,74.59
2022-10-22T04:41:19.673Z,74.52
2022-10-22T04:43:47.116Z,74.24
2022-10-22T04:46:16.351Z,74.23
2022-10-22T04:48:46.038Z,74.08
2022-10-22T04:51:18.047Z,74.22
2022-10-22T04:53:46.184Z,74.65
2022-10-22T04:56:21.157Z,74.69
2022-10-22T04:58:50.598Z,74.21
2022-10-22T05:01:24.137Z,73.94
2022-10-22T05:03:54.483Z,74.31
2022-10-22T05:06:22.774Z,74.55
2022-10-22T05:09:01.320Z,74.19
2022-10-22T05:11:41.544Z,74.03
2022-10-22T05:14:09.998Z,73.68
2022-10-22T05:16:38.133Z,73.46
2022-10-22T05:19:06.030Z,73.63
2022-10-22T05:21:32.907Z,74.29
2022-10-22T05:24:00.056Z,73.76
2022-10-22T05:26:28.373Z,73.59
2022-10-22T05:28:55.106Z,74.11
2022-10-22T05:31:21.632Z,74.29
2022-10-22T05:33:48.378Z,74.16
2022-10-22T05:36:20.086Z,74.06
2022-10-22T05:38:47.292Z,74.29
2022-10-22T05:41:20.459Z,74.41
2022-10-22T05:43:47.327Z,74.10
2022-10-22T05:46:22.158Z,73.95
2022-10-22T05:49:02.440Z,73.95
2022-10-22T05:51:31.648Z,73.95
2022-10-22T05:54:01.444Z,74.03
2022-10-22T05:56:31.766Z,73.94
2022-10-22T05:58:59.072Z,74.04
2022-10-22T06:01:32.697Z,74.21
2022-10-22T06:04:02.870Z,74.12
2022-10-22T06:06:37.176Z,73.92
2022-10-22T06:12:10.822Z,75.07
2022-10-22T06:14:37.304Z,75.25
2022-10-22T06:17:03.807Z,75.56
2022-10-22T06:19:31.186Z,75.13
2022-10-22T06:21:57.815Z,75.88
2022-10-22T06:24:24.303Z,75.68
2022-10-22T06:26:52.296Z,76.07
2022-10-22T06:29:18.913Z,75.93
2022-10-22T06:31:45.456Z,76.12
2022-10-22T06:34:14.435Z,76.05
2022-10-22T06:36:42.697Z,75.74
2022-10-22T06:39:16.998Z,76.05
2022-10-22T06:41:43.562Z,76.44
2022-10-22T06:44:18.090Z,76.22
2022-10-22T06:46:45.048Z,76.65
2022-10-22T06:49:15.820Z,76.63
2022-10-22T06:51:42.364Z,77.06
2022-10-22T06:54:09.330Z,76.82
2022-10-22T06:56:35.828Z,76.72
2022-10-22T06:59:03.441Z,76.71
2022-10-22T07:01:33.473Z,76.56
2022-10-22T07:04:00.807Z,76.01
2022-10-22T07:06:29.161Z,75.94
2022-10-22T07:08:58.251Z,75.13
2022-10-22T07:11:44.412Z,75.17
2022-10-22T07:14:12.072Z,75.29
2022-10-22T07:16:39.030Z,75.01
2022-10-22T07:19:05.887Z,75.45
2022-10-22T07:21:32.477Z,75.46
2022-10-22T07:23:59.546Z,75.00
2022-10-22T07:26:30.715Z,75.29
2022-10-22T07:28:57.351Z,75.05
2022-10-22T07:31:23.820Z,75.22
2022-10-22T07:33:50.397Z,75.26
2022-10-22T07:36:17.810Z,75.18
2022-10-22T07:38:53.815Z,74.32
2022-10-22T07:41:20.347Z,74.78
2022-10-22T07:43:46.829Z,74.68
2022-10-22T07:46:13.516Z,75.11
2022-10-22T07:48:40.069Z,75.14
2022-10-22T07:51:06.968Z,75.13
2022-10-22T07:53:33.755Z,75.15
2022-10-22T07:56:00.317Z,75.14
2022-10-22T07:58:26.779Z,74.34
2022-10-22T08:00:57.940Z,74.51
2022-10-22T08:03:24.490Z,74.69
2022-10-22T08:05:52.308Z,74.80
2022-10-22T08:08:19.049Z,74.80
2022-10-22T08:10:48.274Z,74.81
2022-10-22T08:13:15.621Z,74.77
2022-10-22T08:18:14.954Z,74.82
2022-10-22T08:20:42.569Z,75.13
2022-10-22T08:23:09.705Z,75.36
2022-10-22T08:25:36.465Z,75.49
2022-10-22T08:28:03.162Z,75.87
2022-10-22T08:30:29.765Z,76.32
2022-10-22T08:32:56.878Z,76.54
2022-10-22T08:35:23.414Z,76.56
2022-10-22T08:37:49.867Z,76.65
2022-10-22T08:40:30.156Z,76.56
2022-10-22T08:43:22.091Z,76.83
2022-10-22T08:46:33.727Z,77.27
2022-10-22T08:49:13.848Z,76.94
2022-10-22T08:51:40.631Z,77.05
2022-10-22T08:54:44.535Z,77.29
2022-10-22T08:57:52.435Z,78.39
2022-10-22T09:00:27.889Z,77.90
2022-10-22T09:03:30.879Z,77.58
2022-10-22T09:06:11.583Z,77.06
2022-10-22T09:08:40.426Z,76.90
2022-10-22T09:11:23.662Z,76.61
2022-10-22T09:13:53.862Z,76.53
2022-10-22T09:16:57.836Z,76.30
2022-10-22T09:19:48.044Z,76.13
2022-10-22T09:22:55.983Z,75.94
2022-10-22T09:25:36.142Z,76.13
2022-10-22T09:28:03.250Z,76.19
2022-10-22T09:30:35.461Z,75.60
2022-10-22T09:33:05.827Z,75.35
2022-10-22T09:35:48.811Z,75.33
2022-10-22T09:38:18.980Z,75.96
2022-10-22T09:40:53.070Z,75.74
2022-10-22T09:43:20.410Z,75.54
2022-10-22T09:45:54.925Z,75.29
2022-10-22T09:48:34.265Z,75.14
2022-10-22T09:51:20.402Z,75.10
2022-10-22T09:53:59.847Z,75.40
2022-10-22T09:57:04.377Z,74.99
2022-10-22T09:59:38.033Z,74.76
2022-10-22T10:02:20.218Z,74.61
2022-10-22T10:05:03.763Z,74.47
2022-10-22T10:07:33.843Z,74.36
2022-10-22T10:10:01.678Z,74.39
2022-10-22T10:12:49.989Z,73.96
2022-10-22T10:15:36.474Z,73.48
2022-10-22T10:18:45.758Z,72.85
2022-10-22T10:21:48.731Z,72.82
2022-10-22T10:24:51.884Z,72.77
2022-10-22T10:27:26.917Z,73.19
2022-10-22T10:30:14.093Z,72.74
2022-10-22T10:33:22.523Z,72.72
2022-10-22T10:36:12.342Z,72.33
2022-10-22T10:39:02.639Z,71.11
2022-10-22T10:41:40.881Z,72.37
2022-10-22T10:44:47.422Z,72.06
2022-10-22T10:47:56.311Z,71.91
2022-10-22T10:51:07.679Z,71.36
2022-10-22T10:54:30.524Z,69.47
2022-10-22T10:57:22.123Z,70.23
2022-10-22T11:00:15.863Z,69.29
2022-10-22T11:02:57.421Z,70.23
2022-10-22T11:05:58.806Z,69.31
2022-10-22T11:08:32.804Z,69.80
2022-10-22T11:11:21.021Z,69.15
2022-10-22T11:14:03.237Z,69.14
2022-10-22T11:16:47.178Z,69.02
2022-10-22T11:19:49.819Z,69.54
2022-10-22T11:22:27.100Z,69.51
2022-10-22T11:25:17.477Z,69.24
2022-10-22T11:28:10.375Z,68.36
2022-10-22T11:30:43.183Z,69.32
2022-10-22T11:33:21.919Z,69.26
2022-10-22T11:35:50.658Z,69.30
2022-10-22T11:38:25.614Z,68.77
2022-10-22T11:41:04.557Z,68.53
2022-10-22T11:44:03.363Z,68.40
2022-10-22T11:46:53.486Z,68.50
2022-10-22T11:49:41.191Z,68.29
2022-10-22T11:52:40.020Z,68.02
2022-10-22T11:55:51.572Z,68.31
2022-10-22T11:58:30.691Z,68.19
2022-10-22T12:01:03.013Z,67.83
2022-10-22T12:03:32.373Z,67.88
2022-10-22T12:06:04.810Z,67.75
2022-10-22T12:08:34.251Z,67.87
2022-10-22T12:11:33.967Z,67.20
2022-10-22T12:14:29.595Z,66.92
2022-10-22T12:17:14.764Z,66.73
2022-10-22T12:19:57.420Z,66.37
2022-10-22T12:22:32.138Z,66.36
2022-10-22T12:25:07.533Z,65.92
2022-10-22T12:27:38.759Z,65.93
2022-10-22T12:30:46.306Z,65.15
2022-10-22T12:33:22.381Z,65.85
2022-10-22T12:35:52.911Z,65.73
2022-10-22T12:38:23.791Z,65.66
2022-10-22T12:40:53.942Z,65.46
2022-10-22T12:43:27.885Z,65.74
2022-10-22T12:45:57.643Z,65.60
2022-10-22T12:48:28.493Z,65.50
2022-10-22T12:50:59.537Z,65.31
2022-10-22T12:53:31.926Z,65.59
2022-10-22T12:56:11.594Z,65.79
2022-10-22T12:58:57.023Z,65.80
2022-10-22T13:01:28.026Z,66.18
2022-10-22T13:04:21.229Z,65.92
2022-10-22T13:06:51.548Z,66.17
2022-10-22T13:09:27.471Z,65.98
2022-10-22T13:12:05.655Z,67.04
2022-10-22T13:14:37.326Z,67.03
2022-10-22T13:17:23.767Z,66.13
2022-10-22T13:20:02.153Z,66.35
2022-10-22T13:22:33.904Z,66.28
2022-10-22T13:25:23.950Z,65.78
2022-10-22T13:28:12.555Z,65.63
2022-10-22T13:30:51.402Z,65.23
2022-10-22T13:33:29.136Z,64.75
2022-10-22T13:35:57.002Z,64.55
2022-10-22T13:38:26.561Z,64.15
2022-10-22T13:40:53.572Z,64.20
2022-10-22T13:43:20.805Z,63.81
2022-10-22T13:45:52.131Z,63.95
2022-10-22T13:48:22.248Z,63.63
2022-10-22T13:50:50.550Z,63.53
2022-10-22T13:53:27.639Z,63.49
2022-10-22T13:55:54.191Z,63.71
2022-10-22T13:58:26.708Z,63.39
2022-10-22T14:00:59.837Z,62.57
2022-10-22T14:03:37.318Z,62.46
2022-10-22T14:06:12.019Z,62.36
2022-10-22T14:08:38.862Z,62.62
2022-10-22T14:11:05.551Z,62.88
2022-10-22T14:13:32.080Z,62.99
2022-10-22T14:15:58.575Z,63.00
2022-10-22T14:18:31.306Z,63.48
2022-10-22T14:21:04.999Z,63.33
2022-10-22T14:23:32.489Z,62.96
2022-10-22T14:26:00.298Z,63.02
2022-10-22T14:28:27.030Z,63.00
2022-10-22T14:30:55.043Z,63.17
2022-10-22T14:33:29.043Z,62.30
2022-10-22T14:35:58.719Z,62.49
2022-10-22T14:38:25.254Z,62.74
2022-10-22T14:40:51.859Z,62.84
2022-10-22T14:43:25.474Z,62.98
2022-10-22T14:45:52.243Z,63.29
2022-10-22T14:50:51.366Z,62.80
2022-10-22T14:53:17.898Z,62.62
2022-10-22T14:55:47.035Z,63.24
2022-10-22T14:58:14.396Z,62.98
2022-10-22T15:00:42.867Z,63.42
2022-10-22T15:03:11.560Z,63.52
2022-10-22T15:05:46.234Z,62.61
2022-10-22T15:08:14.826Z,63.07
2022-10-22T15:10:41.744Z,63.32
2022-10-22T15:13:08.811Z,63.00
2022-10-22T15:15:39.551Z,63.35
2022-10-22T15:18:06.499Z,63.55
2022-10-22T15:20:32.953Z,63.90
2022-10-22T15:22:59.482Z,64.57
2022-10-22T15:25:25.919Z,64.68
2022-10-22T15:27:54.848Z,65.28
2022-10-22T15:30:26.002Z,65.48
2022-10-22T15:32:52.499Z,65.95
2022-10-22T15:35:18.989Z,65.92
2022-10-22T15:37:45.485Z,65.87
2022-10-22T15:40:12.351Z,66.21
2022-10-22T15:42:39.106Z,66.32
2022-10-22T15:45:06.631Z,66.46
2022-10-22T15:47:33.567Z,66.65
2022-10-22T15:49:59.987Z,66.75
2022-10-22T15:52:26.469Z,67.05
2022-10-22T15:54:52.986Z,67.07
2022-10-22T15:57:19.481Z,67.33
2022-10-22T15:59:46.829Z,67.52
2022-10-22T16:02:13.310Z,67.63
2022-10-22T16:04:39.789Z,68.05
2022-10-22T16:07:06.280Z,68.27
2022-10-22T16:09:32.945Z,68.25
2022-10-22T16:11:59.420Z,68.00
2022-10-22T16:14:26.309Z,67.79
2022-10-22T16:16:55.536Z,68.23
2022-10-22T16:19:24.218Z,68.34
2022-10-22T16:21:52.760Z,68.07
2022-10-22T16:24:20.550Z,67.58
2022-10-22T16:26:47.951Z,67.56
2022-10-22T16:29:14.548Z,68.35
2022-10-22T16:31:43.513Z,68.97
2022-10-22T16:34:10.174Z,69.20
2022-10-22T16:36:37.046Z,69.28
2022-10-22T16:39:05.151Z,69.06
2022-10-22T16:41:37.582Z,69.21
2022-10-22T16:44:07.763Z,68.81
2022-10-22T16:46:38.195Z,69.19
2022-10-22T16:49:06.657Z,69.37
2022-10-22T16:51:34.079Z,69.72
2022-10-22T16:54:00.569Z,69.51
2022-10-22T16:56:27.490Z,69.87
2022-10-22T16:58:57.221Z,69.67
2022-10-22T17:01:28.870Z,70.00
2022-10-22T17:03:59.090Z,69.45
2022-10-22T17:06:25.949Z,69.74
2022-10-22T17:08:52.772Z,69.72
2022-10-22T17:11:23.735Z,69.99
2022-10-22T17:13:53.203Z,70.36
2022-10-22T17:16:23.254Z,70.97
2022-10-22T17:18:49.942Z,71.40
2022-10-22T17:21:18.339Z,71.38
2022-10-22T17:23:45.830Z,71.29
2022-10-22T17:26:21.462Z,71.37
2022-10-22T17:28:49.086Z,72.07
2022-10-22T17:31:23.500Z,72.05
2022-10-22T17:33:53.400Z,72.06
2022-10-22T17:36:22.435Z,71.77
2022-10-22T17:38:53.095Z,72.22
2022-10-22T17:41:23.236Z,72.33
2022-10-22T17:43:50.116Z,72.67
2022-10-22T17:46:21.688Z,72.90
2022-10-22T17:48:57.817Z,72.36
2022-10-22T17:51:26.903Z,72.31
2022-10-22T17:53:53.785Z,71.92
2022-10-22T17:56:24.116Z,71.80
2022-10-22T17:58:51.846Z,72.16
2022-10-22T18:01:25.917Z,71.93
2022-10-22T18:03:55.076Z,72.17
2022-10-22T18:06:21.932Z,72.44
2022-10-22T18:08:48.483Z,72.81
2022-10-22T18:11:20.029Z,72.93
2022-10-22T18:13:52.186Z,73.58
2022-10-22T18:16:19.749Z,73.66
2022-10-22T18:18:48.767Z,73.32
2022-10-22T18:21:17.087Z,73.48
2022-10-22T18:23:44.956Z,73.64
2022-10-22T18:26:12.005Z,73.76
2022-10-22T18:28:38.532Z,73.47
2022-10-22T18:31:08.077Z,73.72
2022-10-22T18:33:37.159Z,73.41
2022-10-22T18:36:08.793Z,72.80
2022-10-22T18:38:38.031Z,73.17
2022-10-22T18:41:10.032Z,73.54
2022-10-22T18:43:36.959Z,73.85
2022-10-22T18:46:06.938Z,73.69
2022-10-22T18:48:37.439Z,74.03
2022-10-22T18:51:09.951Z,73.85
2022-10-22T18:53:37.742Z,73.71
2022-10-22T18:56:06.493Z,73.83
2022-10-22T18:58:41.070Z,73.89
2022-10-22T19:01:17.657Z,73.71
2022-10-22T19:03:44.636Z,74.01
2022-10-22T19:06:15.111Z,74.20
2022-10-22T19:08:41.798Z,74.14
2022-10-22T19:11:14.596Z,74.38
2022-10-22T19:13:42.235Z,74.22
2022-10-22T19:16:15.877Z,74.58
2022-10-22T19:18:42.309Z,75.08
2022-10-22T19:21:08.762Z,75.24
2022-10-22T19:23:35.355Z,74.83
2022-10-22T19:26:13.590Z,73.85
2022-10-22T19:28:41.327Z,74.10
2022-10-22T19:31:12.334Z,74.04
2022-10-22T19:33:39.799Z,74.19
2022-10-22T19:36:09.216Z,74.29
2022-10-22T19:38:39.970Z,74.10
2022-10-22T19:41:09.007Z,74.14
2022-10-22T19:43:35.529Z,74.29
2022-10-22T19:46:04.957Z,73.71
2022-10-22T19:48:31.575Z,73.51
2022-10-22T19:51:05.478Z,73.14
2022-10-22T19:53:34.147Z,73.20
2022-10-22T19:56:01.545Z,73.06
2022-10-22T19:58:28.409Z,72.79
2022-10-22T20:00:54.916Z,72.56
2022-10-22T20:03:23.008Z,72.73
2022-10-22T20:05:52.517Z,73.19
2022-10-22T20:08:18.964Z,73.89
2022-10-22T20:10:49.144Z,74.13
2022-10-22T20:13:16.265Z,74.35
2022-10-22T20:15:42.691Z,74.75
2022-10-22T20:18:09.130Z,74.52
2022-10-22T20:20:38.267Z,74.13
2022-10-22T20:23:04.787Z,73.80
2022-10-22T20:25:31.263Z,73.82
2022-10-22T20:27:57.707Z,73.60
2022-10-22T20:30:24.156Z,73.26
2022-10-22T20:32:50.574Z,73.51
2022-10-22T20:35:17.033Z,73.19
2022-10-22T20:37:43.544Z,72.55
2022-10-22T20:40:10.832Z,73.16
2022-10-22T20:42:37.812Z,73.40
2022-10-22T20:45:05.087Z,73.03
2022-10-22T20:47:44.307Z,73.08
2022-10-22T20:50:21.129Z,73.10
2022-10-22T20:52:48.151Z,73.15
2022-10-22T20:57:42.687Z,73.61
2022-10-22T21:00:10.273Z,73.89
2022-10-22T21:02:36.718Z,73.45
2022-10-22T21:05:03.315Z,73.38
2022-10-22T21:07:29.797Z,73.04
2022-10-22T21:09:56.227Z,72.21
2022-10-22T21:12:22.683Z,72.63
2022-10-22T21:14:49.183Z,72.83
2022-10-22T21:17:15.734Z,73.32
2022-10-22T21:19:42.191Z,73.32
2022-10-22T21:22:08.674Z,73.69
2022-10-22T21:24:35.118Z,73.87
2022-10-22T21:27:03.819Z,73.31
2022-10-22T21:29:30.314Z,72.96
2022-10-22T21:31:56.765Z,72.47
2022-10-22T21:34:23.289Z,73.25
2022-10-22T21:36:49.837Z,73.08
2022-10-22T21:39:16.278Z,72.75
2022-10-22T21:41:42.733Z,72.77
2022-10-22T21:44:09.202Z,72.54
2022-10-22T21:46:35.701Z,72.51
2022-10-22T21:49:04.483Z,72.62
2022-10-22T21:51:35.060Z,73.29
2022-10-22T21:54:01.793Z,73.62
2022-10-22T21:56:34.861Z,73.71
2022-10-22T21:59:04.612Z,74.33
2022-10-22T22:01:31.301Z,74.65
2022-10-22T22:03:58.532Z,73.84
2022-10-22T22:06:29.563Z,73.74
2022-10-22T22:08:57.906Z,73.54
2022-10-22T22:11:27.418Z,72.85
2022-10-22T22:13:57.587Z,73.08
2022-10-22T22:16:30.963Z,73.02
2022-10-22T22:19:05.965Z,72.83
2022-10-22T22:21:33.770Z,72.89
2022-10-22T22:24:00.540Z,73.27
2022-10-22T22:26:30.076Z,72.94
2022-10-22T22:28:58.972Z,73.18
2022-10-22T22:31:32.542Z,73.76
2022-10-22T22:34:15.154Z,73.52
2022-10-22T22:36:45.902Z,74.37
2022-10-22T22:39:18.711Z,73.91
2022-10-22T22:41:46.291Z,73.54
2022-10-22T22:44:13.833Z,73.93
2022-10-22T22:46:40.661Z,74.07
2022-10-22T22:49:07.980Z,74.32
2022-10-22T22:51:34.851Z,74.25
2022-10-22T22:54:02.182Z,74.67
2022-10-22T22:56:32.102Z,74.30
2022-10-22T22:58:58.800Z,74.55
2022-10-22T23:01:32.559Z,73.90
2022-10-22T23:04:03.278Z,73.50
2022-10-22T23:06:35.790Z,73.80
2022-10-22T23:09:03.866Z,73.50
2022-10-22T23:11:30.619Z,72.84
2022-10-22T23:14:01.492Z,72.26
2022-10-22T23:16:32.387Z,72.81
2022-10-22T23:19:00.189Z,73.14
2022-10-22T23:21:33.614Z,72.95
2022-10-22T23:24:04.780Z,73.29
2022-10-22T23:26:35.919Z,73.99
2022-10-22T23:29:15.766Z,73.90
2022-10-22T23:31:43.902Z,74.60
2022-10-22T23:34:15.560Z,74.84
2022-10-22T23:36:42.261Z,75.08
2022-10-22T23:39:17.070Z,74.50
2022-10-22T23:41:44.053Z,74.14
2022-10-22T23:44:11.249Z,74.31
2022-10-22T23:46:38.846Z,74.38
2022-10-22T23:49:08.343Z,74.03
2022-10-22T23:51:35.730Z,74.82
2022-10-22T23:54:07.268Z,74.51
2022-10-22T23:56:34.576Z,74.48
2022-10-22T23:59:01.282Z,74.34
